createdAt,value
2023-04-22T00:00:43.015Z,97934.22
2023-04-22T00:03:10.378Z,97940.28
2023-04-22T00:05:38.155Z,97937.47
2023-04-22T00:08:04.942Z,97924.97
2023-04-22T00:10:31.561Z,97931.69
2023-04-22T00:12:58.366Z,97935.84
2023-04-22T00:15:26.825Z,97931.69
2023-04-22T00:17:54.007Z,97922.72
2023-04-22T00:20:22.147Z,97919.03
2023-04-22T00:22:48.861Z,97912.94
2023-04-22T00:25:16.538Z,97918.38
2023-04-22T00:27:43.363Z,97932.81
2023-04-22T00:30:10.627Z,97925.81
2023-04-22T00:32:38.333Z,97915.44
2023-04-22T00:35:05.735Z,97911.56
2023-04-22T00:37:32.419Z,97920.47
2023-04-22T00:39:59.243Z,97907.69
2023-04-22T00:42:26.516Z,97918.88
2023-04-22T00:44:53.776Z,97922.34
2023-04-22T00:47:21.309Z,97919.31
2023-04-22T00:49:50.222Z,97909.78
2023-04-22T00:52:17.503Z,97907.22
2023-04-22T00:54:44.654Z,97914.25
2023-04-22T00:57:11.545Z,97910.69
2023-04-22T00:59:38.915Z,97906.38
2023-04-22T01:02:05.959Z,97908.44
2023-04-22T01:04:32.909Z,97904.88
2023-04-22T01:07:01.730Z,97899.59
2023-04-22T01:09:28.659Z,97903.41
2023-04-22T01:11:56.515Z,97907.09
2023-04-22T01:14:24.767Z,97916.06
2023-04-22T01:16:55.993Z,97913.41
2023-04-22T01:19:23.899Z,97923.16
2023-04-22T01:21:52.135Z,97911.16
2023-04-22T01:24:19.282Z,97910.34
2023-04-22T01:26:46.860Z,97921.94
2023-04-22T01:29:14.735Z,97923.78
2023-04-22T01:31:42.946Z,97925.59
2023-04-22T01:34:09.982Z,97925.84
2023-04-22T01:36:36.729Z,97915.56
2023-04-22T01:39:03.476Z,97915.97
2023-04-22T01:41:30.760Z,97919.47
2023-04-22T01:43:58.454Z,97917.97
2023-04-22T01:46:25.329Z,97922.69
2023-04-22T01:48:52.165Z,97917.22
2023-04-22T01:51:22.148Z,97907.84
2023-04-22T01:53:49.294Z,97908.66
2023-04-22T01:56:16.430Z,97916.72
2023-04-22T01:58:43.812Z,97915.00
2023-04-22T02:01:12.003Z,97924.25
2023-04-22T02:03:38.948Z,97920.09
2023-04-22T02:06:05.790Z,97917.38
2023-04-22T02:08:32.418Z,97918.53
2023-04-22T02:11:00.963Z,97913.59
2023-04-22T02:13:35.488Z,97923.09
2023-04-22T02:16:02.283Z,97924.59
2023-04-22T02:18:28.916Z,97938.16
2023-04-22T02:20:55.620Z,97929.34
2023-04-22T02:23:22.532Z,97924.19
2023-04-22T02:25:53.198Z,97927.63
2023-04-22T02:28:20.045Z,97920.00
2023-04-22T02:30:46.970Z,97933.16
2023-04-22T02:33:13.662Z,97923.69
2023-04-22T02:35:40.390Z,97921.19
2023-04-22T02:38:07.133Z,97922.97
2023-04-22T02:40:33.795Z,97925.59
2023-04-22T02:43:00.601Z,97921.13
2023-04-22T02:45:27.284Z,97924.34
2023-04-22T02:47:53.954Z,97923.34
2023-04-22T02:50:21.085Z,97933.94
2023-04-22T02:52:47.779Z,97927.19
2023-04-22T02:55:14.724Z,97924.53
2023-04-22T02:57:41.392Z,97922.75
2023-04-22T03:00:08.885Z,97919.28
2023-04-22T03:02:35.723Z,97927.16
2023-04-22T03:05:02.919Z,97922.09
2023-04-22T03:07:29.652Z,97924.69
2023-04-22T03:09:56.317Z,97924.41
2023-04-22T03:12:22.898Z,97922.34
2023-04-22T03:14:49.515Z,97917.22
2023-04-22T03:17:16.248Z,97916.13
2023-04-22T03:19:43.123Z,97916.03
2023-04-22T03:22:09.890Z,97923.09
2023-04-22T03:24:36.559Z,97917.94
2023-04-22T03:27:04.174Z,97912.69
2023-04-22T03:29:30.897Z,97918.94
2023-04-22T03:31:57.547Z,97910.28
2023-04-22T03:34:24.219Z,97919.16
2023-04-22T03:36:50.975Z,97913.16
2023-04-22T03:39:17.776Z,97922.97
2023-04-22T03:41:44.417Z,97917.59
2023-04-22T03:44:11.068Z,97921.94
2023-04-22T03:46:37.756Z,97915.28
2023-04-22T03:49:04.838Z,97916.44
2023-04-22T03:51:32.026Z,97918.75
2023-04-22T03:53:58.709Z,97911.63
2023-04-22T03:56:25.677Z,97914.31
2023-04-22T03:58:52.359Z,97914.88
2023-04-22T04:01:19.361Z,97914.88
2023-04-22T04:03:46.275Z,97928.31
2023-04-22T04:06:13.104Z,97912.25
2023-04-22T04:08:39.775Z,97917.03
2023-04-22T04:11:06.443Z,97906.50
2023-04-22T04:13:33.430Z,97915.69
2023-04-22T04:16:00.486Z,97922.78
2023-04-22T04:18:27.869Z,97914.63
2023-04-22T04:20:54.572Z,97920.66
2023-04-22T04:23:21.273Z,97913.44
2023-04-22T04:25:48.113Z,97922.84
2023-04-22T04:28:14.826Z,97922.78
2023-04-22T04:30:41.950Z,97914.56
2023-04-22T04:33:08.684Z,97921.41
2023-04-22T04:35:36.514Z,97924.59
2023-04-22T04:38:06.397Z,97925.72
2023-04-22T04:40:34.882Z,97919.97
2023-04-22T04:43:02.811Z,97919.59
2023-04-22T04:45:30.363Z,97917.63
2023-04-22T04:47:57.183Z,97919.09
2023-04-22T04:50:24.187Z,97925.91
2023-04-22T04:52:52.552Z,97935.91
2023-04-22T04:55:19.776Z,97924.16
2023-04-22T04:57:46.878Z,97929.09
2023-04-22T05:00:16.940Z,97932.75
2023-04-22T05:02:43.790Z,97923.63
2023-04-22T05:05:11.132Z,97929.47
2023-04-22T05:07:38.055Z,97923.00
2023-04-22T05:10:05.170Z,97925.13
2023-04-22T05:12:32.041Z,97928.13
2023-04-22T05:14:58.777Z,97919.94
2023-04-22T05:17:25.977Z,97916.47
2023-04-22T05:19:52.738Z,97916.97
2023-04-22T05:22:19.804Z,97923.53
2023-04-22T05:24:46.676Z,97923.69
2023-04-22T05:27:13.358Z,97921.97
2023-04-22T05:29:40.481Z,97925.94
2023-04-22T05:32:08.563Z,97929.66
2023-04-22T05:34:36.185Z,97926.94
2023-04-22T05:37:04.162Z,97926.38
2023-04-22T05:39:31.105Z,97924.78
2023-04-22T05:41:57.942Z,97934.06
2023-04-22T05:44:24.841Z,97928.13
2023-04-22T05:46:51.884Z,97931.22
2023-04-22T05:49:18.626Z,97925.84
2023-04-22T05:51:46.352Z,97935.47
2023-04-22T05:54:13.229Z,97932.03
2023-04-22T05:56:39.940Z,97921.78
2023-04-22T05:59:06.640Z,97929.72
2023-04-22T06:01:33.622Z,97922.56
2023-04-22T06:04:00.620Z,97921.84
2023-04-22T06:06:27.793Z,97921.13
2023-04-22T06:08:54.476Z,97923.38
2023-04-22T06:11:21.261Z,97930.94
2023-04-22T06:13:48.037Z,97925.25
2023-04-22T06:16:14.843Z,97924.69
2023-04-22T06:18:43.681Z,97928.44
2023-04-22T06:21:10.832Z,97931.00
2023-04-22T06:23:37.616Z,97935.97
2023-04-22T06:26:04.805Z,97924.66
2023-04-22T06:28:31.633Z,97931.28
2023-04-22T06:30:58.317Z,97921.94
2023-04-22T06:33:25.056Z,97924.84
2023-04-22T06:35:51.822Z,97926.31
2023-04-22T06:38:18.668Z,97936.47
2023-04-22T06:40:45.443Z,97927.94
2023-04-22T06:43:12.110Z,97917.13
2023-04-22T06:45:38.819Z,97925.34
2023-04-22T06:48:05.451Z,97938.00
2023-04-22T06:50:32.191Z,97923.63
2023-04-22T06:52:58.991Z,97914.91
2023-04-22T06:55:25.782Z,97919.22
2023-04-22T06:57:52.412Z,97919.72
2023-04-22T07:00:19.431Z,97908.00
2023-04-22T07:02:46.194Z,97912.16
2023-04-22T07:05:12.938Z,97913.38
2023-04-22T07:07:39.821Z,97907.22
2023-04-22T07:10:07.155Z,97908.53
2023-04-22T07:12:33.913Z,97902.59
2023-04-22T07:15:00.614Z,97911.06
2023-04-22T07:17:27.224Z,97902.16
2023-04-22T07:19:53.915Z,97905.59
2023-04-22T07:22:21.077Z,97904.91
2023-04-22T07:24:47.934Z,97910.81
2023-04-22T07:27:14.941Z,97910.81
2023-04-22T07:29:41.886Z,97899.47
2023-04-22T07:32:09.491Z,97908.78
2023-04-22T07:34:36.305Z,97905.00
2023-04-22T07:37:03.258Z,97903.19
2023-04-22T07:39:29.974Z,97898.72
2023-04-22T07:41:57.122Z,97898.09
2023-04-22T07:44:23.895Z,97896.34
2023-04-22T07:46:50.629Z,97893.75
2023-04-22T07:49:17.650Z,97890.91
2023-04-22T07:51:45.290Z,97890.09
2023-04-22T07:54:12.370Z,97890.75
2023-04-22T07:56:42.126Z,97892.16
2023-04-22T07:59:09.317Z,97886.50
2023-04-22T08:01:36.175Z,97883.06
2023-04-22T08:04:03.978Z,97883.72
2023-04-22T08:06:33.399Z,97893.59
2023-04-22T08:09:00.524Z,97879.78
2023-04-22T08:11:27.855Z,97883.38
2023-04-22T08:13:54.763Z,97875.47
2023-04-22T08:16:21.682Z,97875.16
2023-04-22T08:18:48.511Z,97870.59
2023-04-22T08:21:15.655Z,97867.03
2023-04-22T08:23:42.493Z,97872.41
2023-04-22T08:26:12.430Z,97871.16
2023-04-22T08:28:39.152Z,97862.19
2023-04-22T08:31:06.981Z,97870.34
2023-04-22T08:33:33.917Z,97869.22
2023-04-22T08:36:00.876Z,97866.78
2023-04-22T08:38:27.719Z,97871.19
2023-04-22T08:40:56.910Z,97872.28
2023-04-22T08:43:27.127Z,97870.75
2023-04-22T08:45:53.989Z,97872.41
2023-04-22T08:48:20.649Z,97867.75
2023-04-22T08:50:48.507Z,97869.44
2023-04-22T08:53:15.228Z,97866.63
2023-04-22T08:55:45.280Z,97858.03
2023-04-22T08:58:13.046Z,97859.84
2023-04-22T09:00:43.651Z,97863.59
2023-04-22T09:03:11.181Z,97860.44
2023-04-22T09:05:40.528Z,97868.03
2023-04-22T09:08:08.267Z,97850.78
2023-04-22T09:10:38.683Z,97857.44
2023-04-22T09:13:07.121Z,97849.47
2023-04-22T09:15:34.129Z,97856.78
2023-04-22T09:18:04.016Z,97854.19
2023-04-22T09:20:31.283Z,97850.25
2023-04-22T09:23:04.474Z,97859.66
2023-04-22T09:25:34.934Z,97849.81
2023-04-22T09:28:02.269Z,97857.03
2023-04-22T09:30:34.096Z,97855.03
2023-04-22T09:33:03.287Z,97843.56
2023-04-22T09:35:35.896Z,97839.06
2023-04-22T09:38:05.039Z,97836.25
2023-04-22T09:40:32.350Z,97831.97
2023-04-22T09:43:01.125Z,97829.38
2023-04-22T09:45:30.605Z,97825.28
2023-04-22T09:48:01.175Z,97824.41
2023-04-22T09:50:29.270Z,97823.75
2023-04-22T09:53:01.980Z,97825.19
2023-04-22T09:55:31.194Z,97813.38
2023-04-22T09:57:58.681Z,97814.50
2023-04-22T10:00:30.861Z,97818.59
2023-04-22T10:02:57.769Z,97808.81
2023-04-22T10:05:25.498Z,97805.16
2023-04-22T10:07:53.105Z,97803.19
2023-04-22T10:10:20.131Z,97803.59
2023-04-22T10:12:48.206Z,97800.06
2023-04-22T10:15:14.999Z,97802.88
2023-04-22T10:17:43.760Z,97801.88
2023-04-22T10:20:16.262Z,97802.16
2023-04-22T10:22:43.657Z,97796.19
2023-04-22T10:25:28.799Z,97793.41
2023-04-22T10:28:06.454Z,97790.78
2023-04-22T10:30:35.482Z,97791.41
2023-04-22T10:33:20.980Z,97794.41
2023-04-22T10:36:06.531Z,97792.56
2023-04-22T10:38:37.427Z,97796.38
2023-04-22T10:41:04.691Z,97790.72
2023-04-22T10:43:48.311Z,97797.03
2023-04-22T10:46:50.526Z,97798.94
2023-04-22T10:49:22.620Z,97790.00
2023-04-22T10:51:54.271Z,97790.03
2023-04-22T10:54:32.510Z,97800.16
2023-04-22T10:57:11.002Z,97795.25
2023-04-22T10:59:56.271Z,97791.16
2023-04-22T11:02:24.087Z,97787.03
2023-04-22T11:04:54.603Z,97780.81
2023-04-22T11:07:23.074Z,97784.69
2023-04-22T11:09:51.980Z,97776.63
2023-04-22T11:12:39.921Z,97776.47
2023-04-22T11:15:18.700Z,97764.13
2023-04-22T11:17:48.280Z,97768.03
2023-04-22T11:20:19.245Z,97756.56
2023-04-22T11:22:52.091Z,97760.38
2023-04-22T11:25:19.618Z,97756.53
2023-04-22T11:27:46.476Z,97760.88
2023-04-22T11:30:15.323Z,97762.50
2023-04-22T11:32:44.897Z,97765.00
2023-04-22T11:35:20.764Z,97764.50
2023-04-22T11:38:10.171Z,97761.53
2023-04-22T11:40:45.699Z,97748.31
2023-04-22T11:43:13.431Z,97751.16
2023-04-22T11:45:40.662Z,97752.41
2023-04-22T11:48:09.006Z,97739.16
2023-04-22T11:50:38.064Z,97745.91
2023-04-22T11:53:13.447Z,97743.09
2023-04-22T11:55:41.343Z,97730.88
2023-04-22T11:58:13.265Z,97737.78
2023-04-22T12:00:46.945Z,97742.72
2023-04-22T12:03:27.591Z,97734.84
2023-04-22T12:05:57.905Z,97742.34
2023-04-22T12:08:27.282Z,97728.66
2023-04-22T12:10:57.316Z,97731.00
2023-04-22T12:13:26.522Z,97728.13
2023-04-22T12:15:56.343Z,97733.56
2023-04-22T12:18:30.859Z,97743.53
2023-04-22T12:21:01.800Z,97718.53
2023-04-22T12:23:28.809Z,97710.00
2023-04-22T12:25:55.775Z,97720.06
2023-04-22T12:28:22.678Z,97725.72
2023-04-22T12:30:49.471Z,97722.31
2023-04-22T12:33:16.189Z,97718.56
2023-04-22T12:35:43.334Z,97716.41
2023-04-22T12:38:09.908Z,97710.63
2023-04-22T12:40:36.537Z,97708.34
2023-04-22T12:43:06.170Z,97706.44
2023-04-22T12:45:33.040Z,97704.66
2023-04-22T12:48:00.159Z,97707.44
2023-04-22T12:50:27.011Z,97713.41
2023-04-22T12:52:53.897Z,97705.13
2023-04-22T12:55:21.468Z,97698.34
2023-04-22T12:57:51.110Z,97706.66
2023-04-22T13:00:18.934Z,97699.75
2023-04-22T13:02:48.024Z,97701.28
2023-04-22T13:05:16.125Z,97689.75
2023-04-22T13:07:43.498Z,97696.56
2023-04-22T13:10:12.669Z,97695.25
2023-04-22T13:12:40.222Z,97690.34
2023-04-22T13:15:07.864Z,97687.88
2023-04-22T13:17:35.330Z,97687.97
2023-04-22T13:20:02.567Z,97681.97
2023-04-22T13:22:29.359Z,97680.94
2023-04-22T13:24:56.114Z,97676.41
2023-04-22T13:27:22.905Z,97683.88
2023-04-22T13:29:49.703Z,97676.84
2023-04-22T13:32:16.540Z,97675.91
2023-04-22T13:34:43.382Z,97671.06
2023-04-22T13:37:10.223Z,97666.53
2023-04-22T13:39:37.072Z,97672.78
2023-04-22T13:42:04.196Z,97668.91
2023-04-22T13:44:30.929Z,97667.09
2023-04-22T13:46:57.901Z,97664.56
2023-04-22T13:49:26.436Z,97666.28
2023-04-22T13:51:53.881Z,97652.44
2023-04-22T13:54:20.957Z,97658.94
2023-04-22T13:56:47.993Z,97649.31
2023-04-22T13:59:14.769Z,97645.66
2023-04-22T14:01:41.851Z,97646.22
2023-04-22T14:04:08.758Z,97639.91
2023-04-22T14:06:35.468Z,97634.19
2023-04-22T14:09:04.558Z,97633.66
2023-04-22T14:11:32.139Z,97645.09
2023-04-22T14:13:59.059Z,97633.78
2023-04-22T14:16:26.020Z,97632.66
2023-04-22T14:18:53.179Z,97629.25
2023-04-22T14:21:19.909Z,97628.97
2023-04-22T14:23:46.758Z,97632.00
2023-04-22T14:26:13.518Z,97628.63
2023-04-22T14:28:43.871Z,97617.03
2023-04-22T14:31:10.800Z,97616.00
2023-04-22T14:33:37.647Z,97613.63
2023-04-22T14:36:04.689Z,97610.78
2023-04-22T14:38:31.503Z,97609.09
2023-04-22T14:40:58.532Z,97611.09
2023-04-22T14:43:25.314Z,97616.69
2023-04-22T14:45:52.051Z,97604.59
2023-04-22T14:48:18.858Z,97601.28
2023-04-22T14:50:45.713Z,97597.75
2023-04-22T14:53:12.600Z,97596.03
2023-04-22T14:55:39.392Z,97593.34
2023-04-22T14:58:06.454Z,97600.72
2023-04-22T15:00:33.398Z,97593.09
2023-04-22T15:03:00.501Z,97590.25
2023-04-22T15:05:27.319Z,97588.84
2023-04-22T15:07:54.348Z,97589.44
2023-04-22T15:10:21.584Z,97589.56
2023-04-22T15:12:48.631Z,97579.66
2023-04-22T15:15:17.063Z,97582.59
2023-04-22T15:17:45.165Z,97581.63
2023-04-22T15:20:13.061Z,97581.78
2023-04-22T15:22:43.737Z,97579.97
2023-04-22T15:25:11.323Z,97571.63
2023-04-22T15:27:38.902Z,97577.69
2023-04-22T15:30:06.878Z,97577.69
2023-04-22T15:32:34.036Z,97583.56
2023-04-22T15:35:01.080Z,97577.97
2023-04-22T15:37:27.949Z,97573.53
2023-04-22T15:39:54.754Z,97566.03
2023-04-22T15:42:21.524Z,97574.91
2023-04-22T15:44:48.310Z,97568.31
2023-04-22T15:47:16.820Z,97565.09
2023-04-22T15:49:44.127Z,97561.72
2023-04-22T15:52:11.161Z,97559.03
2023-04-22T15:54:37.811Z,97556.09
2023-04-22T15:57:04.527Z,97559.72
2023-04-22T15:59:31.294Z,97559.69
2023-04-22T16:01:58.183Z,97553.91
2023-04-22T16:04:25.120Z,97559.97
2023-04-22T16:06:52.408Z,97556.44
2023-04-22T16:09:19.485Z,97552.38
2023-04-22T16:11:46.289Z,97548.56
2023-04-22T16:14:13.110Z,97552.47
2023-04-22T16:16:41.497Z,97549.81
2023-04-22T16:19:08.673Z,97547.38
2023-04-22T16:21:36.275Z,97553.09
2023-04-22T16:24:02.977Z,97552.19
2023-04-22T16:26:29.784Z,97544.53
2023-04-22T16:28:56.497Z,97544.47
2023-04-22T16:31:23.394Z,97543.56
2023-04-22T16:33:51.855Z,97546.38
2023-04-22T16:36:18.705Z,97537.91
2023-04-22T16:38:45.739Z,97543.09
2023-04-22T16:41:12.461Z,97545.22
2023-04-22T16:43:41.067Z,97546.16
2023-04-22T16:46:08.292Z,97542.72
2023-04-22T16:48:36.114Z,97531.81
2023-04-22T16:51:03.038Z,97525.50
2023-04-22T16:53:30.693Z,97528.66
2023-04-22T16:55:57.627Z,97525.50
2023-04-22T16:58:25.014Z,97525.31
2023-04-22T17:00:51.936Z,97521.91
2023-04-22T17:03:19.087Z,97521.78
2023-04-22T17:05:45.948Z,97528.34
2023-04-22T17:08:12.866Z,97523.56
2023-04-22T17:10:45.559Z,97524.81
2023-04-22T17:13:13.640Z,97532.28
2023-04-22T17:15:41.632Z,97522.44
2023-04-22T17:18:08.562Z,97524.13
2023-04-22T17:20:36.156Z,97529.72
2023-04-22T17:23:04.157Z,97525.13
2023-04-22T17:25:31.438Z,97532.66
2023-04-22T17:27:58.173Z,97526.69
2023-04-22T17:30:25.058Z,97534.84
2023-04-22T17:32:51.967Z,97530.00
2023-04-22T17:35:18.957Z,97532.94
2023-04-22T17:37:46.353Z,97526.38
2023-04-22T17:40:13.224Z,97527.56
2023-04-22T17:42:45.956Z,97537.19
2023-04-22T17:45:13.269Z,97526.13
2023-04-22T17:47:40.017Z,97536.59
2023-04-22T17:50:07.846Z,97535.13
2023-04-22T17:52:34.619Z,97540.38
2023-04-22T17:55:01.466Z,97541.94
2023-04-22T17:57:28.568Z,97540.72
2023-04-22T17:59:55.537Z,97543.91
2023-04-22T18:02:22.824Z,97549.72
2023-04-22T18:04:49.823Z,97558.66
2023-04-22T18:07:17.223Z,97549.31
2023-04-22T18:09:44.026Z,97556.81
2023-04-22T18:12:10.810Z,97566.59
2023-04-22T18:14:37.511Z,97566.59
2023-04-22T18:17:04.521Z,97561.00
2023-04-22T18:19:31.347Z,97571.19
2023-04-22T18:22:00.267Z,97566.81
2023-04-22T18:24:28.380Z,97564.84
2023-04-22T18:26:55.166Z,97565.34
2023-04-22T18:29:22.048Z,97573.06
2023-04-22T18:31:48.800Z,97569.41
2023-04-22T18:34:16.018Z,97577.88
2023-04-22T18:36:42.912Z,97575.44
2023-04-22T18:39:11.003Z,97580.38
2023-04-22T18:41:40.745Z,97584.06
2023-04-22T18:44:07.606Z,97576.75
2023-04-22T18:46:34.400Z,97578.47
2023-04-22T18:49:01.500Z,97585.31
2023-04-22T18:51:30.040Z,97592.47
2023-04-22T18:53:57.087Z,97579.91
2023-04-22T18:56:23.838Z,97588.53
2023-04-22T18:58:50.744Z,97592.94
2023-04-22T19:01:17.665Z,97598.75
2023-04-22T19:03:44.604Z,97598.28
2023-04-22T19:06:12.624Z,97599.13
2023-04-22T19:08:39.329Z,97595.94
2023-04-22T19:11:06.238Z,97602.78
2023-04-22T19:13:32.962Z,97604.78
2023-04-22T19:16:00.295Z,97609.19
2023-04-22T19:18:27.095Z,97611.44
2023-04-22T19:20:53.867Z,97612.84
2023-04-22T19:23:20.660Z,97607.28
2023-04-22T19:25:48.102Z,97614.31
2023-04-22T19:28:14.750Z,97616.66
2023-04-22T19:30:41.804Z,97610.59
2023-04-22T19:33:08.619Z,97610.72
2023-04-22T19:35:35.477Z,97606.91
2023-04-22T19:38:02.317Z,97608.38
2023-04-22T19:40:29.430Z,97599.66
2023-04-22T19:42:56.139Z,97612.00
2023-04-22T19:45:23.030Z,97601.16
2023-04-22T19:47:50.000Z,97606.25
2023-04-22T19:50:17.123Z,97612.00
2023-04-22T19:52:46.089Z,97605.41
2023-04-22T19:55:13.390Z,97603.69
2023-04-22T19:57:43.373Z,97608.53
2023-04-22T20:00:11.660Z,97609.56
2023-04-22T20:02:39.461Z,97596.50
2023-04-22T20:05:06.657Z,97606.50
2023-04-22T20:07:34.153Z,97610.06
2023-04-22T20:10:02.522Z,97611.84
2023-04-22T20:12:29.555Z,97599.88
2023-04-22T20:14:58.093Z,97603.50
2023-04-22T20:17:26.103Z,97605.22
2023-04-22T20:19:54.071Z,97602.13
2023-04-22T20:22:27.529Z,97601.16
2023-04-22T20:25:04.215Z,97609.13
2023-04-22T20:27:32.569Z,97612.00
2023-04-22T20:30:01.125Z,97607.88
2023-04-22T20:32:29.300Z,97604.75
2023-04-22T20:34:56.497Z,97602.09
2023-04-22T20:37:24.769Z,97605.94
2023-04-22T20:39:52.927Z,97606.91
2023-04-22T20:42:22.024Z,97598.59
2023-04-22T20:44:48.730Z,97601.13
2023-04-22T20:47:16.693Z,97594.63
2023-04-22T20:49:43.986Z,97606.94
2023-04-22T20:52:12.322Z,97604.94
2023-04-22T20:54:39.887Z,97606.63
2023-04-22T20:57:07.700Z,97597.47
2023-04-22T20:59:35.607Z,97607.78
2023-04-22T21:02:04.368Z,97610.88
2023-04-22T21:04:32.591Z,97604.28
2023-04-22T21:07:03.980Z,97608.00
2023-04-22T21:09:32.638Z,97602.81
2023-04-22T21:11:59.789Z,97603.03
2023-04-22T21:14:27.072Z,97603.88
2023-04-22T21:17:02.161Z,97601.00
2023-04-22T21:19:35.678Z,97600.25
2023-04-22T21:22:06.311Z,97601.50
2023-04-22T21:24:35.097Z,97593.97
2023-04-22T21:27:02.252Z,97607.84
2023-04-22T21:29:29.373Z,97605.69
2023-04-22T21:32:08.197Z,97605.03
2023-04-22T21:34:36.600Z,97604.16
2023-04-22T21:37:05.422Z,97617.41
2023-04-22T21:39:32.221Z,97614.41
2023-04-22T21:41:58.957Z,97611.09
2023-04-22T21:44:25.788Z,97609.50
2023-04-22T21:46:52.520Z,97618.00
2023-04-22T21:49:20.708Z,97622.94
2023-04-22T21:51:48.060Z,97620.22
2023-04-22T21:54:14.824Z,97619.38
2023-04-22T21:56:41.848Z,97619.75
2023-04-22T21:59:08.493Z,97623.53
2023-04-22T22:01:35.386Z,97624.81
2023-04-22T22:04:03.118Z,97629.44
2023-04-22T22:06:30.625Z,97626.25
2023-04-22T22:08:57.439Z,97626.03
2023-04-22T22:11:30.835Z,97624.16
2023-04-22T22:13:58.393Z,97622.16
2023-04-22T22:16:25.871Z,97620.56
2023-04-22T22:18:52.785Z,97623.88
2023-04-22T22:21:19.735Z,97620.75
2023-04-22T22:23:46.405Z,97619.41
2023-04-22T22:26:13.392Z,97625.78
2023-04-22T22:28:40.537Z,97629.50
2023-04-22T22:31:08.266Z,97626.25
2023-04-22T22:33:35.280Z,97619.25
2023-04-22T22:36:02.380Z,97631.06
2023-04-22T22:38:29.141Z,97631.63
2023-04-22T22:40:56.042Z,97627.47
2023-04-22T22:43:22.826Z,97635.31
2023-04-22T22:45:49.592Z,97630.03
2023-04-22T22:48:16.602Z,97629.44
2023-04-22T22:50:43.880Z,97625.84
2023-04-22T22:53:10.633Z,97637.13
2023-04-22T22:55:37.390Z,97636.09
2023-04-22T22:58:04.197Z,97622.06
2023-04-22T23:00:30.910Z,97622.63
2023-04-22T23:02:58.086Z,97632.84
2023-04-22T23:05:24.883Z,97629.81
2023-04-22T23:07:51.660Z,97624.72
2023-04-22T23:10:18.346Z,97620.94
2023-04-22T23:12:45.216Z,97632.28
2023-04-22T23:15:12.077Z,97624.31
2023-04-22T23:17:39.083Z,97621.94
2023-04-22T23:20:09.472Z,97616.72
2023-04-22T23:22:39.018Z,97614.16
2023-04-22T23:25:07.025Z,97618.69
2023-04-22T23:27:34.504Z,97612.19
2023-04-22T23:30:01.663Z,97611.22
2023-04-22T23:32:32.471Z,97607.81
2023-04-22T23:35:00.835Z,97610.63
2023-04-22T23:37:29.023Z,97609.31
2023-04-22T23:39:55.912Z,97611.78
2023-04-22T23:42:22.649Z,97615.28
2023-04-22T23:44:49.254Z,97606.38
2023-04-22T23:47:16.054Z,97609.00
2023-04-22T23:49:42.856Z,97610.31
2023-04-22T23:52:10.547Z,97607.78
2023-04-22T23:54:37.445Z,97602.34
2023-04-22T23:57:04.398Z,97612.09
2023-04-22T23:59:31.429Z,97604.53
